createdAt,value
2023-05-21T00:00:24.359Z,0.20
2023-05-21T00:03:15.083Z,0.20
2023-05-21T00:06:04.029Z,0.10
2023-05-21T00:08:51.981Z,0.10
2023-05-21T00:11:25.500Z,0.17
2023-05-21T00:14:12.898Z,0.10
2023-05-21T00:16:47.218Z,0.33
2023-05-21T00:19:35.037Z,0.15
2023-05-21T00:22:09.467Z,0.20
2023-05-21T00:24:42.861Z,0.15
2023-05-21T00:27:30.606Z,0.35
2023-05-21T00:30:05.071Z,0.62
2023-05-21T00:32:40.290Z,0.10
2023-05-21T00:35:14.006Z,0.10
2023-05-21T00:38:03.055Z,0.10
2023-05-21T00:40:37.364Z,0.10
2023-05-21T00:43:10.960Z,0.10
2023-05-21T00:45:59.574Z,0.20
2023-05-21T00:48:35.286Z,0.10
2023-05-21T00:51:09.160Z,0.20
2023-05-21T00:53:57.870Z,0.10
2023-05-21T00:56:45.904Z,0.20
2023-05-21T00:59:19.687Z,0.45
2023-05-21T01:02:09.607Z,0.10
2023-05-21T01:04:43.172Z,0.20
2023-05-21T01:07:30.832Z,0.10
2023-05-21T01:10:18.845Z,0.10
2023-05-21T01:12:57.565Z,0.10
2023-05-21T01:15:46.459Z,0.00
2023-05-21T01:18:35.428Z,0.10
2023-05-21T01:21:09.934Z,0.10
2023-05-21T01:23:59.133Z,0.17
2023-05-21T01:26:33.876Z,0.20
2023-05-21T01:29:21.965Z,0.10
2023-05-21T01:32:00.276Z,0.35
2023-05-21T01:34:52.004Z,0.20
2023-05-21T01:37:43.836Z,0.17
2023-05-21T01:40:20.205Z,0.10
2023-05-21T01:43:09.778Z,0.72
2023-05-21T01:45:45.486Z,0.80
2023-05-21T01:48:33.933Z,0.13
2023-05-21T01:51:08.582Z,0.10
2023-05-21T01:53:42.235Z,0.10
2023-05-21T01:56:30.063Z,0.10
2023-05-21T01:59:18.519Z,0.30
2023-05-21T02:01:52.237Z,0.10
2023-05-21T02:04:41.349Z,0.10
2023-05-21T02:07:15.231Z,0.20
2023-05-21T02:10:03.378Z,0.20
2023-05-21T02:12:36.947Z,0.10
2023-05-21T02:15:25.186Z,0.10
2023-05-21T02:18:14.550Z,0.20
2023-05-21T02:21:02.363Z,0.10
2023-05-21T02:23:36.226Z,0.10
2023-05-21T02:26:23.850Z,0.10
2023-05-21T02:28:57.994Z,0.20
2023-05-21T02:31:45.913Z,0.28
2023-05-21T02:34:35.150Z,0.10
2023-05-21T02:37:09.855Z,0.17
2023-05-21T02:39:57.869Z,0.10
2023-05-21T02:42:31.726Z,0.15
2023-05-21T02:45:19.407Z,0.10
2023-05-21T02:47:52.963Z,0.30
2023-05-21T02:50:40.857Z,0.10
2023-05-21T02:53:14.475Z,0.10
2023-05-21T02:56:02.220Z,0.37
2023-05-21T02:58:36.090Z,0.10
2023-05-21T03:01:23.842Z,0.10
2023-05-21T03:03:57.276Z,0.10
2023-05-21T03:06:46.664Z,0.35
2023-05-21T03:09:21.949Z,0.20
2023-05-21T03:11:56.840Z,7.00
2023-05-21T03:14:30.235Z,6.53
2023-05-21T03:17:19.011Z,7.03
2023-05-21T03:19:52.593Z,6.95
2023-05-21T03:22:40.306Z,7.45
2023-05-21T03:25:28.483Z,8.08
2023-05-21T03:28:02.148Z,5.97
2023-05-21T03:30:52.267Z,7.10
2023-05-21T03:33:42.699Z,7.28
2023-05-21T03:36:38.271Z,8.18
2023-05-21T03:39:12.642Z,7.15
2023-05-21T03:41:46.580Z,7.03
2023-05-21T03:44:35.666Z,7.58
2023-05-21T03:47:27.662Z,7.10
2023-05-21T03:50:03.424Z,7.37
2023-05-21T03:52:51.214Z,6.95
2023-05-21T03:55:24.927Z,7.75
2023-05-21T03:58:12.218Z,8.33
2023-05-21T04:00:46.245Z,7.80
2023-05-21T04:03:37.256Z,7.33
2023-05-21T04:06:25.840Z,7.33
2023-05-21T04:09:13.438Z,7.05
2023-05-21T04:12:00.969Z,7.42
2023-05-21T04:14:35.504Z,7.47
2023-05-21T04:17:23.156Z,8.30
2023-05-21T04:20:13.760Z,7.87
2023-05-21T04:22:47.329Z,7.12
2023-05-21T04:25:35.299Z,7.78
2023-05-21T04:28:24.341Z,8.73
2023-05-21T04:30:57.984Z,8.13
2023-05-21T04:33:31.562Z,8.30
2023-05-21T04:36:19.341Z,7.67
2023-05-21T04:38:53.618Z,7.95
2023-05-21T04:41:41.760Z,8.30
2023-05-21T04:44:15.658Z,8.10
2023-05-21T04:47:04.453Z,7.30
2023-05-21T04:49:37.830Z,7.47
2023-05-21T04:52:11.525Z,7.33
2023-05-21T04:54:59.140Z,7.40
2023-05-21T04:57:35.286Z,6.35
2023-05-21T05:00:24.767Z,6.58
2023-05-21T05:03:12.763Z,6.35
2023-05-21T05:06:00.536Z,5.53
2023-05-21T05:08:48.531Z,5.55
2023-05-21T05:11:22.482Z,6.20
2023-05-21T05:14:10.579Z,6.03
2023-05-21T05:16:44.187Z,6.00
2023-05-21T05:19:32.096Z,5.90
2023-05-21T05:22:05.939Z,6.42
2023-05-21T05:24:54.149Z,6.50
2023-05-21T05:27:27.892Z,6.67
2023-05-21T05:30:15.854Z,6.12
2023-05-21T05:32:49.386Z,6.33
2023-05-21T05:35:37.210Z,5.75
2023-05-21T05:38:10.597Z,6.15
2023-05-21T05:40:58.479Z,5.30
2023-05-21T05:43:32.260Z,5.33
2023-05-21T05:46:20.529Z,5.85
2023-05-21T05:48:54.061Z,5.33
2023-05-21T05:51:42.500Z,6.55
2023-05-21T05:54:30.219Z,4.67
2023-05-21T05:57:17.940Z,5.05
2023-05-21T05:59:51.626Z,5.60
2023-05-21T06:02:25.240Z,4.90
2023-05-21T06:04:59.570Z,4.70
2023-05-21T06:07:47.216Z,5.50
2023-05-21T06:10:21.382Z,4.35
2023-05-21T06:12:54.803Z,5.65
2023-05-21T06:15:28.349Z,5.47
2023-05-21T06:18:22.142Z,5.47
2023-05-21T06:20:55.682Z,5.20
2023-05-21T06:23:29.394Z,5.35
2023-05-21T06:26:18.783Z,5.97
2023-05-21T06:29:07.237Z,5.85
2023-05-21T06:31:55.095Z,4.95
2023-05-21T06:34:28.757Z,5.47
2023-05-21T06:37:17.847Z,6.70
2023-05-21T06:39:51.408Z,6.08
2023-05-21T06:42:25.054Z,7.08
2023-05-21T06:45:15.400Z,5.83
2023-05-21T06:47:50.595Z,5.75
2023-05-21T06:50:38.647Z,4.60
2023-05-21T06:53:14.011Z,4.58
2023-05-21T06:56:01.918Z,5.22
2023-05-21T06:58:49.022Z,4.55
2023-05-21T07:01:23.400Z,4.45
2023-05-21T07:03:56.836Z,3.50
2023-05-21T07:06:45.505Z,3.90
2023-05-21T07:09:19.529Z,3.42
2023-05-21T07:12:08.550Z,3.60
2023-05-21T07:14:41.910Z,3.67
2023-05-21T07:17:29.760Z,3.35
2023-05-21T07:20:04.569Z,3.40
2023-05-21T07:22:39.698Z,2.90
2023-05-21T07:25:28.221Z,3.25
2023-05-21T07:28:01.524Z,2.95
2023-05-21T07:30:49.491Z,3.87
2023-05-21T07:33:39.058Z,3.92
2023-05-21T07:36:28.608Z,2.85
2023-05-21T07:39:01.913Z,2.67
2023-05-21T07:41:35.361Z,3.30
2023-05-21T07:44:25.420Z,3.10
2023-05-21T07:47:13.154Z,3.08
2023-05-21T07:49:46.851Z,3.30
2023-05-21T07:52:20.616Z,3.25
2023-05-21T07:54:54.170Z,3.50
2023-05-21T07:57:28.285Z,2.98
2023-05-21T08:00:19.169Z,3.72
2023-05-21T08:02:57.475Z,3.70
2023-05-21T08:05:48.014Z,3.47
2023-05-21T08:08:36.662Z,3.02
2023-05-21T08:11:10.326Z,3.70
2023-05-21T08:13:43.917Z,3.37
2023-05-21T08:16:17.709Z,3.42
2023-05-21T08:19:05.556Z,3.50
2023-05-21T08:21:53.319Z,3.52
2023-05-21T08:24:28.717Z,3.42
2023-05-21T08:27:17.058Z,2.55
2023-05-21T08:29:50.948Z,2.70
2023-05-21T08:32:24.558Z,2.45
2023-05-21T08:35:13.324Z,2.25
2023-05-21T08:38:02.768Z,3.10
2023-05-21T08:40:37.981Z,2.62
2023-05-21T08:43:13.055Z,2.52
2023-05-21T08:46:05.129Z,2.37
2023-05-21T08:48:41.575Z,2.17
2023-05-21T08:51:15.286Z,2.45
2023-05-21T08:54:05.973Z,2.60
2023-05-21T08:56:56.579Z,2.80
2023-05-21T08:59:30.268Z,2.85
2023-05-21T09:02:05.503Z,2.80
2023-05-21T09:04:57.513Z,2.60
2023-05-21T09:07:32.567Z,2.58
2023-05-21T09:10:24.557Z,2.50
2023-05-21T09:12:58.397Z,2.87
2023-05-21T09:15:47.449Z,2.10
2023-05-21T09:18:35.685Z,2.15
2023-05-21T09:21:27.502Z,2.35
2023-05-21T09:24:24.343Z,2.83
2023-05-21T09:27:12.387Z,2.87
2023-05-21T09:30:00.284Z,2.52
2023-05-21T09:32:35.697Z,2.27
2023-05-21T09:35:23.646Z,3.20
2023-05-21T09:37:58.607Z,3.22
2023-05-21T09:40:47.906Z,2.52
2023-05-21T09:43:23.719Z,3.02
2023-05-21T09:46:11.944Z,3.83
2023-05-21T09:48:45.928Z,4.10
2023-05-21T09:51:37.034Z,3.37
2023-05-21T09:54:12.054Z,2.60
2023-05-21T09:57:01.386Z,2.85
2023-05-21T09:59:41.349Z,2.95
2023-05-21T10:02:20.912Z,3.10
2023-05-21T10:05:11.852Z,2.77
2023-05-21T10:07:48.406Z,3.08
2023-05-21T10:10:23.343Z,2.80
2023-05-21T10:13:13.362Z,2.90
2023-05-21T10:16:03.429Z,2.50
2023-05-21T10:18:53.621Z,2.62
2023-05-21T10:21:42.325Z,2.62
2023-05-21T10:24:16.886Z,3.17
2023-05-21T10:27:06.157Z,3.55
2023-05-21T10:29:55.085Z,3.25
2023-05-21T10:32:31.014Z,3.42
2023-05-21T10:35:19.148Z,3.52
2023-05-21T10:38:08.130Z,3.87
2023-05-21T10:40:57.178Z,2.95
2023-05-21T10:43:48.662Z,2.83
2023-05-21T10:46:49.966Z,3.47
2023-05-21T10:49:55.821Z,4.25
2023-05-21T10:52:55.129Z,3.45
2023-05-21T10:55:40.387Z,3.87
2023-05-21T10:59:28.677Z,3.75
2023-05-21T11:02:22.942Z,3.90
2023-05-21T11:05:04.087Z,3.25
2023-05-21T11:07:57.237Z,3.22
2023-05-21T11:10:44.792Z,3.00
2023-05-21T11:13:19.871Z,2.60
2023-05-21T11:16:18.291Z,2.65
2023-05-21T11:19:04.557Z,2.87
2023-05-21T11:21:56.156Z,2.50
2023-05-21T11:24:30.950Z,2.42
2023-05-21T11:27:35.694Z,2.33
2023-05-21T11:30:23.369Z,2.30
2023-05-21T11:33:23.084Z,2.80
2023-05-21T11:36:01.261Z,2.80
2023-05-21T11:38:34.798Z,3.20
2023-05-21T11:41:23.677Z,8.98
2023-05-21T11:44:04.154Z,5.75
2023-05-21T11:46:52.860Z,3.58
2023-05-21T11:49:29.134Z,4.33
2023-05-21T11:52:03.279Z,3.40
2023-05-21T11:54:41.759Z,2.90
2023-05-21T11:57:31.383Z,2.72
2023-05-21T12:00:09.344Z,2.27
2023-05-21T12:03:18.322Z,2.50
2023-05-21T12:05:54.076Z,2.60
2023-05-21T12:08:42.227Z,3.02
2023-05-21T12:11:15.788Z,3.20
2023-05-21T12:13:51.014Z,3.15
2023-05-21T12:16:38.697Z,2.75
2023-05-21T12:19:12.527Z,3.02
2023-05-21T12:21:46.819Z,3.25
2023-05-21T12:24:20.344Z,3.00
2023-05-21T12:27:10.354Z,3.05
2023-05-21T12:29:45.817Z,3.02
2023-05-21T12:32:19.709Z,3.35
2023-05-21T12:35:08.717Z,3.58
2023-05-21T12:37:42.190Z,2.98
2023-05-21T12:40:39.829Z,2.83
2023-05-21T12:43:13.941Z,4.58
2023-05-21T12:46:01.617Z,3.65
2023-05-21T12:48:35.007Z,3.98
2023-05-21T12:51:23.069Z,5.22
2023-05-21T12:54:16.639Z,3.42
2023-05-21T12:56:50.726Z,5.15
2023-05-21T12:59:51.530Z,4.25
2023-05-21T13:02:26.577Z,3.17
2023-05-21T13:05:01.518Z,3.30
2023-05-21T13:07:50.964Z,3.27
2023-05-21T13:10:38.853Z,2.92
2023-05-21T13:13:12.564Z,3.33
2023-05-21T13:16:06.732Z,2.58
2023-05-21T13:18:39.985Z,2.92
2023-05-21T13:21:27.799Z,2.70
2023-05-21T13:24:01.068Z,2.75
2023-05-21T13:26:50.507Z,2.62
2023-05-21T13:29:24.023Z,2.52
2023-05-21T13:32:12.086Z,1.90
2023-05-21T13:34:45.586Z,2.75
2023-05-21T13:37:33.492Z,2.60
2023-05-21T13:40:11.087Z,2.27
2023-05-21T13:42:59.987Z,2.20
2023-05-21T13:45:34.016Z,2.95
2023-05-21T13:48:21.768Z,3.20
2023-05-21T13:50:55.266Z,2.47
2023-05-21T13:53:28.933Z,2.80
2023-05-21T13:56:16.498Z,2.72
2023-05-21T13:58:50.048Z,3.35
2023-05-21T14:01:37.800Z,2.67
2023-05-21T14:04:25.656Z,2.35
2023-05-21T14:07:13.757Z,2.83
2023-05-21T14:10:01.670Z,2.22
2023-05-21T14:12:48.995Z,1.77
2023-05-21T14:15:22.458Z,2.12
2023-05-21T14:18:12.477Z,2.75
2023-05-21T14:20:45.722Z,2.30
2023-05-21T14:23:19.087Z,2.27
2023-05-21T14:26:07.370Z,2.52
2023-05-21T14:29:21.458Z,2.60
2023-05-21T14:32:10.840Z,2.65
2023-05-21T14:34:44.684Z,2.50
2023-05-21T14:37:32.192Z,3.70
2023-05-21T14:40:07.960Z,3.37
2023-05-21T14:42:56.319Z,3.58
2023-05-21T14:45:44.990Z,3.70
2023-05-21T14:48:20.876Z,3.65
2023-05-21T14:51:09.520Z,3.10
2023-05-21T14:53:43.095Z,1.90
2023-05-21T14:56:30.735Z,2.62
2023-05-21T14:59:04.143Z,1.90
2023-05-21T15:01:51.721Z,2.77
2023-05-21T15:04:25.385Z,2.27
2023-05-21T15:07:13.005Z,3.47
2023-05-21T15:09:46.674Z,2.65
2023-05-21T15:12:19.708Z,2.70
2023-05-21T15:15:09.427Z,2.85
2023-05-21T15:17:58.252Z,2.55
2023-05-21T15:20:31.778Z,2.15
2023-05-21T15:23:19.519Z,3.20
2023-05-21T15:25:53.161Z,2.30
2023-05-21T15:28:40.669Z,3.77
2023-05-21T15:31:14.008Z,2.75
2023-05-21T15:33:47.752Z,2.37
2023-05-21T15:36:36.725Z,3.90
2023-05-21T15:39:10.600Z,2.52
2023-05-21T15:41:58.302Z,2.35
2023-05-21T15:44:31.538Z,2.35
2023-05-21T15:47:19.244Z,2.87
2023-05-21T15:50:08.093Z,2.67
2023-05-21T15:52:42.647Z,2.45
2023-05-21T15:55:16.239Z,3.25
2023-05-21T15:58:05.628Z,2.87
2023-05-21T16:00:39.314Z,2.40
2023-05-21T16:03:14.795Z,2.80
2023-05-21T16:06:02.410Z,3.17
2023-05-21T16:08:36.011Z,2.72
2023-05-21T16:11:24.169Z,2.83
2023-05-21T16:14:11.994Z,3.12
2023-05-21T16:16:45.617Z,3.17
2023-05-21T16:19:33.870Z,2.60
2023-05-21T16:22:09.308Z,3.12
2023-05-21T16:24:56.841Z,2.80
2023-05-21T16:27:44.446Z,2.85
2023-05-21T16:30:18.026Z,2.80
2023-05-21T16:33:05.987Z,3.10
2023-05-21T16:35:54.403Z,3.00
2023-05-21T16:38:27.822Z,2.95
2023-05-21T16:41:15.746Z,3.42
2023-05-21T16:43:49.007Z,2.50
2023-05-21T16:46:36.766Z,2.80
2023-05-21T16:49:10.045Z,3.20
2023-05-21T16:51:57.743Z,2.95
2023-05-21T16:54:47.730Z,3.47
2023-05-21T16:57:35.816Z,3.33
2023-05-21T17:00:24.038Z,2.95
2023-05-21T17:03:11.970Z,4.17
2023-05-21T17:05:45.550Z,2.92
2023-05-21T17:08:33.153Z,3.02
2023-05-21T17:11:07.343Z,3.30
2023-05-21T17:13:41.137Z,3.52
2023-05-21T17:16:28.742Z,2.70
2023-05-21T17:19:02.905Z,2.80
2023-05-21T17:21:36.347Z,2.40
2023-05-21T17:24:10.854Z,2.67
2023-05-21T17:26:58.529Z,2.83
2023-05-21T17:29:32.517Z,3.08
2023-05-21T17:32:20.995Z,3.37
2023-05-21T17:34:54.526Z,3.50
2023-05-21T17:37:42.269Z,2.92
2023-05-21T17:40:18.397Z,3.27
2023-05-21T17:42:52.061Z,2.80
2023-05-21T17:45:25.684Z,3.27
2023-05-21T17:48:13.511Z,3.20
2023-05-21T17:50:47.569Z,4.03
2023-05-21T17:53:21.180Z,4.37
2023-05-21T17:56:11.375Z,6.62
2023-05-21T17:58:44.825Z,6.25
2023-05-21T18:01:32.876Z,5.08
2023-05-21T18:04:09.163Z,4.35
2023-05-21T18:06:56.835Z,4.10
2023-05-21T18:09:44.539Z,6.45
2023-05-21T18:12:18.568Z,4.25
2023-05-21T18:15:07.485Z,4.85
2023-05-21T18:17:40.878Z,4.30
2023-05-21T18:20:28.652Z,5.75
2023-05-21T18:23:16.257Z,4.08
2023-05-21T18:26:04.080Z,4.65
2023-05-21T18:28:37.890Z,5.30
2023-05-21T18:31:11.384Z,5.37
2023-05-21T18:33:58.931Z,5.10
2023-05-21T18:36:35.187Z,5.37
2023-05-21T18:39:24.932Z,4.85
2023-05-21T18:42:12.146Z,6.22
2023-05-21T18:44:50.700Z,6.35
2023-05-21T18:47:24.988Z,8.20
2023-05-21T18:50:15.384Z,5.72
2023-05-21T18:52:48.906Z,5.62
2023-05-21T18:55:37.376Z,5.55
2023-05-21T18:58:24.722Z,5.53
2023-05-21T19:01:12.658Z,5.60
2023-05-21T19:03:46.206Z,5.28
2023-05-21T19:06:22.216Z,5.62
2023-05-21T19:09:11.153Z,7.33
2023-05-21T19:11:48.158Z,6.85
2023-05-21T19:14:36.206Z,7.50
2023-05-21T19:17:09.636Z,7.50
2023-05-21T19:19:57.506Z,6.50
2023-05-21T19:22:31.284Z,6.95
2023-05-21T19:25:19.302Z,6.78
2023-05-21T19:28:07.035Z,7.47
2023-05-21T19:30:41.165Z,8.20
2023-05-21T19:33:28.922Z,7.40
2023-05-21T19:36:02.539Z,7.22
2023-05-21T19:38:50.818Z,7.17
2023-05-21T19:41:24.425Z,7.80
2023-05-21T19:44:12.125Z,7.22
2023-05-21T19:47:00.170Z,6.28
2023-05-21T19:49:33.796Z,6.03
2023-05-21T19:52:12.366Z,8.65
2023-05-21T19:55:02.820Z,9.33
2023-05-21T19:57:50.639Z,9.50
2023-05-21T20:00:25.852Z,7.17
2023-05-21T20:02:59.184Z,7.58
2023-05-21T20:05:32.830Z,6.97
2023-05-21T20:08:06.616Z,6.60
2023-05-21T20:10:54.801Z,7.78
2023-05-21T20:13:28.446Z,8.73
2023-05-21T20:16:02.201Z,7.20
2023-05-21T20:18:35.962Z,8.43
2023-05-21T20:21:09.493Z,7.42
2023-05-21T20:23:42.780Z,6.53
2023-05-21T20:26:16.878Z,6.97
2023-05-21T20:29:06.087Z,8.30
2023-05-21T20:31:39.631Z,8.38
2023-05-21T20:34:27.812Z,8.08
2023-05-21T20:37:15.537Z,8.60
2023-05-21T20:39:49.106Z,8.90
2023-05-21T20:42:23.562Z,9.10
2023-05-21T20:44:58.898Z,8.53
2023-05-21T20:47:48.090Z,9.25
2023-05-21T20:50:24.223Z,8.05
2023-05-21T20:52:58.108Z,8.78
2023-05-21T20:56:01.824Z,9.18
2023-05-21T20:58:42.491Z,8.30
2023-05-21T21:01:31.081Z,9.45
2023-05-21T21:04:19.112Z,8.95
2023-05-21T21:06:53.351Z,9.18
2023-05-21T21:09:40.629Z,9.38
2023-05-21T21:12:25.394Z,8.85
2023-05-21T21:15:03.725Z,9.90
2023-05-21T21:17:51.480Z,9.50
2023-05-21T21:20:24.930Z,7.67
2023-05-21T21:23:12.798Z,9.35
2023-05-21T21:25:46.694Z,10.28
2023-05-21T21:28:34.177Z,8.23
2023-05-21T21:31:21.952Z,7.47
2023-05-21T21:33:55.556Z,8.53
2023-05-21T21:36:42.971Z,9.23
2023-05-21T21:39:30.462Z,8.88
2023-05-21T21:42:04.509Z,9.58
2023-05-21T21:44:39.440Z,9.33
2023-05-21T21:47:12.978Z,9.35
2023-05-21T21:50:00.742Z,9.20
2023-05-21T21:52:37.028Z,8.53
2023-05-21T21:55:24.784Z,10.00
2023-05-21T21:57:58.241Z,9.43
2023-05-21T22:00:32.056Z,9.63
2023-05-21T22:03:05.670Z,10.05
2023-05-21T22:05:54.161Z,9.85
2023-05-21T22:08:28.846Z,9.18
2023-05-21T22:11:04.698Z,10.15
2023-05-21T22:13:53.960Z,9.58
2023-05-21T22:16:28.442Z,10.03
2023-05-21T22:19:17.780Z,9.05
2023-05-21T22:21:52.001Z,9.73
2023-05-21T22:24:39.680Z,10.58
2023-05-21T22:27:13.109Z,10.35
2023-05-21T22:30:00.894Z,9.13
2023-05-21T22:32:49.484Z,9.70
2023-05-21T22:35:23.632Z,10.25
2023-05-21T22:37:57.656Z,10.43
2023-05-21T22:40:45.587Z,10.70
2023-05-21T22:43:18.828Z,10.60
2023-05-21T22:46:06.440Z,10.00
2023-05-21T22:48:54.567Z,10.43
2023-05-21T22:51:43.560Z,10.18
2023-05-21T22:54:16.913Z,9.43
2023-05-21T22:57:05.297Z,10.58
2023-05-21T22:59:38.900Z,10.53
2023-05-21T23:02:26.812Z,10.65
2023-05-21T23:05:00.480Z,9.35
2023-05-21T23:07:35.599Z,9.60
2023-05-21T23:10:23.193Z,9.33
2023-05-21T23:12:56.539Z,9.75
2023-05-21T23:15:44.415Z,9.78
2023-05-21T23:18:18.220Z,9.63
2023-05-21T23:21:06.691Z,9.63
2023-05-21T23:23:54.269Z,10.03
2023-05-21T23:26:41.868Z,9.83
2023-05-21T23:29:15.189Z,9.50
2023-05-21T23:32:04.811Z,9.28
2023-05-21T23:34:38.477Z,9.05
2023-05-21T23:37:26.245Z,10.13
2023-05-21T23:40:15.373Z,9.73
2023-05-21T23:42:48.795Z,9.98
2023-05-21T23:45:36.537Z,9.38
2023-05-21T23:48:24.242Z,9.78
2023-05-21T23:50:57.777Z,8.93
2023-05-21T23:53:45.491Z,10.13
2023-05-21T23:56:33.179Z,10.32
2023-05-21T23:59:06.888Z,8.25
